»·PEaware :: N531HY KHII-KGCN

N531HY :: KHII-KGCN

FLIGHT INFORMATION

Flight Status: Arrived
Operator: Privately registered:
United States
More flights under this callsign
Pilot: Mitch M. (17881)
Aircraft: PIPER PA-46-500TP MALIBU MERIDIAN
(P46T)
More flights by this aircraft type
Origin: KHII Lake Havasu City
United States
Destination: KGCN Grand Canyon Natl Park
United States
More flights between these airports :: More routes between these airports
Route: +
File this flight plan on PilotEdge
Remarks:
Altitude:
(Current/Filed)
9,500ft
Speed:
(Current/Filed)
200kts
Departed: 24-Jan-18 10:20 AM
Arrived: 24-Jan-18 10:52 AM
Distance/Time
Traveled:
137nm/0:31
Distance/Time
To Go:
Arrived

Flight Plot

Page will automatically refresh every two minutes.

Flight plan parsing failed; only flown route is shown


Map Options




Map Legend


Flown Route
Filed Route
Departure Airport
Arrival Airport
Navaid (VOR, NDB)
Fix

Horizontal Profiles

Position Reports

Time Latitude Longitude Heading Altitude Ground
Speed
24-Jan-18 09:55 34.569687 -114.362139 250 786ft 0kts
24-Jan-18 09:56 34.569687 -114.362139 250 786ft 0kts
24-Jan-18 09:57 34.569687 -114.362139 250 786ft 0kts
24-Jan-18 09:58 34.569687 -114.362139 250 786ft 0kts
24-Jan-18 09:59 34.569687 -114.362139 250 786ft 0kts
24-Jan-18 10:00 34.569687 -114.362139 250 786ft 0kts
24-Jan-18 10:01 34.569687 -114.362139 250 786ft 0kts
24-Jan-18 10:02 34.569687 -114.362139 250 786ft 0kts
24-Jan-18 10:03 34.569687 -114.362139 250 786ft 0kts
24-Jan-18 10:04 34.569687 -114.362139 250 786ft 0kts
24-Jan-18 10:05 34.569687 -114.362139 250 786ft 0kts
24-Jan-18 10:06 34.569687 -114.362139 250 786ft 0kts
24-Jan-18 10:09 34.569687 -114.362139 250 786ft 0kts
24-Jan-18 10:10 34.569687 -114.362139 250 786ft 0kts
24-Jan-18 10:11 34.569687 -114.362139 250 786ft 0kts
24-Jan-18 10:12 34.569687 -114.362139 250 786ft 0kts
24-Jan-18 10:13 34.569687 -114.362139 250 786ft 0kts
24-Jan-18 10:14 34.569687 -114.362139 250 786ft 0kts
24-Jan-18 10:15 34.569687 -114.362139 250 786ft 0kts
24-Jan-18 10:16 34.569687 -114.362139 250 786ft 0kts
24-Jan-18 10:17 34.569687 -114.362139 250 786ft 0kts
24-Jan-18 10:18 34.569687 -114.362139 250 786ft 0kts
24-Jan-18 10:19 34.569687 -114.362139 250 786ft 0kts
24-Jan-18 10:20 34.569687 -114.362139 250 786ft 0kts
24-Jan-18 10:21 34.569687 -114.362139 250 786ft 0kts
24-Jan-18 10:22 34.569687 -114.362139 250 786ft 0kts
24-Jan-18 10:23 34.569687 -114.362139 250 786ft 0kts
24-Jan-18 10:24 34.569687 -114.362139 250 786ft 0kts
24-Jan-18 10:25 34.569687 -114.362139 250 786ft 0kts
24-Jan-18 10:26 34.908632 -113.831073 53 13518ft 210kts
24-Jan-18 10:27 34.945546 -113.772649 52 13521ft 223kts
24-Jan-18 10:28 34.983988 -113.711986 52 13521ft 226kts
24-Jan-18 10:29 35.022547 -113.651052 52 13498ft 228kts
24-Jan-18 10:30 35.061221 -113.589761 52 13486ft 227kts
24-Jan-18 10:31 35.100026 -113.528150 53 13487ft 227kts
24-Jan-18 10:32 35.138783 -113.466469 52 13483ft 233kts
24-Jan-18 10:33 35.178272 -113.403575 53 13493ft 235kts
24-Jan-18 10:34 35.218175 -113.339983 52 13489ft 228kts
24-Jan-18 10:35 35.256294 -113.279342 53 13496ft 221kts
24-Jan-18 10:36 35.293327 -113.219895 53 13503ft 218kts
24-Jan-18 10:37 35.331246 -113.159044 52 13514ft 235kts
24-Jan-18 10:38 35.371441 -113.094531 52 13515ft 233kts
24-Jan-18 10:39 35.410053 -113.032245 52 13523ft 231kts
24-Jan-18 10:40 35.449690 -112.968131 52 13525ft 239kts
24-Jan-18 10:41 35.489319 -112.904090 53 13526ft 230kts
24-Jan-18 10:42 35.527463 -112.842062 53 13529ft 225kts
24-Jan-18 10:43 35.565440 -112.780965 52 13534ft 225kts
24-Jan-18 10:44 35.603295 -112.719373 52 13536ft 225kts
24-Jan-18 10:45 35.641079 -112.657991 52 13539ft 225kts
24-Jan-18 10:46 35.678833 -112.596493 52 13540ft 224kts
24-Jan-18 10:47 35.716293 -112.534952 52 13392ft 232kts
24-Jan-18 10:48 35.754131 -112.473262 53 11676ft 201kts
24-Jan-18 10:49 35.782523 -112.426815 54 9847ft 202kts
24-Jan-18 10:50 35.820420 -112.364540 54 7289ft 187kts
24-Jan-18 10:51 35.845941 -112.310189 66 6457ft 181kts
24-Jan-18 10:52 35.869894 -112.257985 59 7023ft 178kts
24-Jan-18 10:53 35.887494 -112.208798 70 7377ft 191kts
24-Jan-18 10:54 35.912985 -112.151817 52 7820ft 196kts
24-Jan-18 10:55 35.951035 -112.092115 37 8025ft 188kts
24-Jan-18 10:56 35.981366 -112.100775 277 7677ft 193kts
24-Jan-18 10:57 35.958405 -112.140637 217 6577ft 133kts
24-Jan-18 10:58 35.947550 -112.150537 129 6571ft 10kts
24-Jan-18 10:59 35.949615 -112.147292 37 6571ft 23kts
24-Jan-18 11:00 35.953464 -112.142701 126 6571ft 9kts
24-Jan-18 11:01 35.953273 -112.142423 130 6571ft 0kts
24-Jan-18 11:02 35.953273 -112.142423 130 6571ft 0kts
24-Jan-18 11:03 35.953273 -112.142423 130 6571ft 0kts
24-Jan-18 11:04 35.953273 -112.142423 130 6571ft 0kts
24-Jan-18 11:05 35.953273 -112.142423 130 6571ft 0kts
24-Jan-18 11:06 35.953273 -112.142423 130 6571ft 0kts
24-Jan-18 11:07 35.953273 -112.142423 130 6571ft 0kts
24-Jan-18 11:08 35.953273 -112.142423 130 6571ft 0kts
24-Jan-18 11:09 35.953273 -112.142423 130 6571ft 0kts
24-Jan-18 11:10 35.953273 -112.142423 130 6571ft 0kts
24-Jan-18 11:11 35.953273 -112.142423 130 6571ft 0kts
24-Jan-18 11:12 35.953273 -112.142423 130 6571ft 0kts

Navigation Log

Ident Type
Flight plan parsing failed, navigation log unavailable